sensor_id;sensor_type;location;lat;lon;timestamp;P1;durP1;ratioP1;P2;durP2;ratioP2
69369;SDS011;56530;42.640;23.372;2024-01-15T00:00:19;28.10;;;20.20;;
69369;SDS011;56530;42.640;23.372;2024-01-15T00:02:44;23.90;;;20.17;;
69369;SDS011;56530;42.640;23.372;2024-01-15T00:05:10;24.67;;;19.60;;
69369;SDS011;56530;42.640;23.372;2024-01-15T00:07:35;27.13;;;20.00;;
69369;SDS011;56530;42.640;23.372;2024-01-15T00:10:01;26.33;;;20.57;;
69369;SDS011;56530;42.640;23.372;2024-01-15T00:12:26;23.37;;;19.10;;
69369;SDS011;56530;42.640;23.372;2024-01-15T00:14:52;28.53;;;21.50;;
69369;SDS011;56530;42.640;23.372;2024-01-15T00:17:18;26.33;;;20.43;;
69369;SDS011;56530;42.640;23.372;2024-01-15T00:19:43;24.37;;;20.37;;
69369;SDS011;56530;42.640;23.372;2024-01-15T00:22:08;25.17;;;18.73;;
69369;SDS011;56530;42.640;23.372;2024-01-15T00:24:34;26.10;;;19.67;;
69369;SDS011;56530;42.640;23.372;2024-01-15T00:26:59;25.47;;;20.20;;
69369;SDS011;56530;42.640;23.372;2024-01-15T00:29:25;24.80;;;19.13;;
69369;SDS011;56530;42.640;23.372;2024-01-15T00:31:50;23.53;;;19.57;;
69369;SDS011;56530;42.640;23.372;2024-01-15T00:34:16;26.10;;;20.13;;
69369;SDS011;56530;42.640;23.372;2024-01-15T00:36:41;24.60;;;20.40;;
69369;SDS011;56530;42.640;23.372;2024-01-15T00:39:06;26.47;;;20.40;;
69369;SDS011;56530;42.640;23.372;2024-01-15T00:41:33;25.70;;;19.30;;
69369;SDS011;56530;42.640;23.372;2024-01-15T00:44:00;24.63;;;19.97;;
69369;SDS011;56530;42.640;23.372;2024-01-15T00:46:25;25.63;;;19.90;;
69369;SDS011;56530;42.640;23.372;2024-01-15T00:48:51;24.43;;;20.27;;
69369;SDS011;56530;42.640;23.372;2024-01-15T00:51:17;26.43;;;20.33;;
69369;SDS011;56530;42.640;23.372;2024-01-15T00:53:43;23.53;;;20.27;;
69369;SDS011;56530;42.640;23.372;2024-01-15T00:56:08;27.53;;;22.63;;
69369;SDS011;56530;42.640;23.372;2024-01-15T00:58:33;26.43;;;21.40;;
69369;SDS011;56530;42.640;23.372;2024-01-15T01:00:59;25.00;;;20.63;;
69369;SDS011;56530;42.640;23.372;2024-01-15T01:03:24;27.20;;;20.87;;
69369;SDS011;56530;42.640;23.372;2024-01-15T01:05:49;26.20;;;22.00;;
69369;SDS011;56530;42.640;23.372;2024-01-15T01:08:15;26.00;;;20.93;;
69369;SDS011;56530;42.640;23.372;2024-01-15T01:10:41;25.97;;;20.93;;
69369;SDS011;56530;42.640;23.372;2024-01-15T01:13:07;26.97;;;20.63;;
69369;SDS011;56530;42.640;23.372;2024-01-15T01:15:33;24.43;;;21.13;;
69369;SDS011;56530;42.640;23.372;2024-01-15T01:17:58;24.67;;;19.10;;
69369;SDS011;56530;42.640;23.372;2024-01-15T01:20:24;26.17;;;20.80;;
69369;SDS011;56530;42.640;23.372;2024-01-15T01:22:49;25.00;;;21.07;;
69369;SDS011;56530;42.640;23.372;2024-01-15T01:25:15;25.87;;;20.97;;
69369;SDS011;56530;42.640;23.372;2024-01-15T01:27:40;23.30;;;18.87;;
69369;SDS011;56530;42.640;23.372;2024-01-15T01:30:06;23.07;;;19.00;;
69369;SDS011;56530;42.640;23.372;2024-01-15T01:32:31;28.80;;;20.63;;
69369;SDS011;56530;42.640;23.372;2024-01-15T01:34:57;26.03;;;20.27;;
69369;SDS011;56530;42.640;23.372;2024-01-15T01:37:22;29.37;;;20.57;;
69369;SDS011;56530;42.640;23.372;2024-01-15T01:39:48;24.30;;;19.47;;
69369;SDS011;56530;42.640;23.372;2024-01-15T01:42:13;23.13;;;18.70;;
69369;SDS011;56530;42.640;23.372;2024-01-15T01:44:38;25.73;;;19.17;;
69369;SDS011;56530;42.640;23.372;2024-01-15T01:47:04;25.47;;;20.93;;
69369;SDS011;56530;42.640;23.372;2024-01-15T01:49:30;26.50;;;21.43;;
69369;SDS011;56530;42.640;23.372;2024-01-15T01:51:56;31.33;;;24.10;;
69369;SDS011;56530;42.640;23.372;2024-01-15T01:54:23;28.80;;;23.53;;
69369;SDS011;56530;42.640;23.372;2024-01-15T01:56:49;28.63;;;23.07;;
69369;SDS011;56530;42.640;23.372;2024-01-15T01:59:15;26.93;;;22.33;;
69369;SDS011;56530;42.640;23.372;2024-01-15T02:01:40;27.37;;;21.83;;
69369;SDS011;56530;42.640;23.372;2024-01-15T02:04:06;23.93;;;20.33;;
69369;SDS011;56530;42.640;23.372;2024-01-15T02:06:31;25.63;;;20.77;;
69369;SDS011;56530;42.640;23.372;2024-01-15T02:08:57;26.73;;;20.13;;
69369;SDS011;56530;42.640;23.372;2024-01-15T02:11:22;23.40;;;19.60;;
69369;SDS011;56530;42.640;23.372;2024-01-15T02:13:47;25.40;;;19.17;;
69369;SDS011;56530;42.640;23.372;2024-01-15T02:16:13;24.27;;;18.87;;
69369;SDS011;56530;42.640;23.372;2024-01-15T02:18:40;22.30;;;18.30;;
69369;SDS011;56530;42.640;23.372;2024-01-15T02:21:06;24.90;;;18.33;;
69369;SDS011;56530;42.640;23.372;2024-01-15T02:23:31;21.80;;;17.00;;
69369;SDS011;56530;42.640;23.372;2024-01-15T02:25:57;22.37;;;16.43;;
69369;SDS011;56530;42.640;23.372;2024-01-15T02:28:22;22.87;;;17.33;;
69369;SDS011;56530;42.640;23.372;2024-01-15T02:30:48;19.73;;;16.33;;
69369;SDS011;56530;42.640;23.372;2024-01-15T02:33:13;22.10;;;17.00;;
69369;SDS011;56530;42.640;23.372;2024-01-15T02:35:38;25.80;;;17.37;;
69369;SDS011;56530;42.640;23.372;2024-01-15T02:38:04;23.87;;;18.30;;
69369;SDS011;56530;42.640;23.372;2024-01-15T02:40:30;18.93;;;16.53;;
69369;SDS011;56530;42.640;23.372;2024-01-15T02:42:56;21.80;;;16.40;;
69369;SDS011;56530;42.640;23.372;2024-01-15T02:45:21;21.07;;;16.33;;
69369;SDS011;56530;42.640;23.372;2024-01-15T02:47:47;21.37;;;16.23;;
69369;SDS011;56530;42.640;23.372;2024-01-15T02:50:13;20.77;;;15.33;;
69369;SDS011;56530;42.640;23.372;2024-01-15T02:52:38;22.60;;;16.40;;
69369;SDS011;56530;42.640;23.372;2024-01-15T02:55:04;20.87;;;16.70;;
69369;SDS011;56530;42.640;23.372;2024-01-15T02:57:29;24.20;;;16.77;;
69369;SDS011;56530;42.640;23.372;2024-01-15T02:59:55;18.67;;;15.90;;
69369;SDS011;56530;42.640;23.372;2024-01-15T03:02:20;17.73;;;14.53;;
69369;SDS011;56530;42.640;23.372;2024-01-15T03:04:46;21.13;;;14.53;;
69369;SDS011;56530;42.640;23.372;2024-01-15T03:07:11;20.90;;;15.57;;
69369;SDS011;56530;42.640;23.372;2024-01-15T03:09:37;18.37;;;15.33;;
69369;SDS011;56530;42.640;23.372;2024-01-15T03:12:02;19.03;;;14.90;;
69369;SDS011;56530;42.640;23.372;2024-01-15T03:14:28;20.40;;;16.17;;
69369;SDS011;56530;42.640;23.372;2024-01-15T03:16:53;18.73;;;15.03;;
69369;SDS011;56530;42.640;23.372;2024-01-15T03:19:19;19.80;;;15.73;;
69369;SDS011;56530;42.640;23.372;2024-01-15T03:21:44;21.53;;;16.30;;
69369;SDS011;56530;42.640;23.372;2024-01-15T03:24:09;18.03;;;14.67;;
69369;SDS011;56530;42.640;23.372;2024-01-15T03:26:35;20.93;;;15.70;;
69369;SDS011;56530;42.640;23.372;2024-01-15T03:29:00;23.40;;;16.90;;
69369;SDS011;56530;42.640;23.372;2024-01-15T03:31:26;22.60;;;17.67;;
69369;SDS011;56530;42.640;23.372;2024-01-15T03:33:51;19.57;;;15.77;;
69369;SDS011;56530;42.640;23.372;2024-01-15T03:36:16;21.90;;;16.37;;
69369;SDS011;56530;42.640;23.372;2024-01-15T03:38:42;18.07;;;15.43;;
69369;SDS011;56530;42.640;23.372;2024-01-15T03:41:07;20.20;;;15.17;;
69369;SDS011;56530;42.640;23.372;2024-01-15T03:43:33;18.23;;;14.43;;
69369;SDS011;56530;42.640;23.372;2024-01-15T03:45:58;21.13;;;16.77;;
69369;SDS011;56530;42.640;23.372;2024-01-15T03:48:24;19.90;;;15.80;;
69369;SDS011;56530;42.640;23.372;2024-01-15T03:50:49;18.90;;;16.07;;
69369;SDS011;56530;42.640;23.372;2024-01-15T03:53:15;22.97;;;17.50;;
69369;SDS011;56530;42.640;23.372;2024-01-15T03:55:42;24.63;;;17.80;;
69369;SDS011;56530;42.640;23.372;2024-01-15T03:58:07;20.40;;;18.00;;
69369;SDS011;56530;42.640;23.372;2024-01-15T04:00:33;26.37;;;19.67;;
69369;SDS011;56530;42.640;23.372;2024-01-15T04:02:58;24.47;;;19.83;;
69369;SDS011;56530;42.640;23.372;2024-01-15T04:05:23;31.53;;;23.43;;
69369;SDS011;56530;42.640;23.372;2024-01-15T04:07:49;26.33;;;22.17;;
69369;SDS011;56530;42.640;23.372;2024-01-15T04:10:14;27.40;;;22.07;;
69369;SDS011;56530;42.640;23.372;2024-01-15T04:12:39;27.87;;;21.87;;
69369;SDS011;56530;42.640;23.372;2024-01-15T04:15:05;35.20;;;23.97;;
69369;SDS011;56530;42.640;23.372;2024-01-15T04:17:31;30.23;;;22.17;;
69369;SDS011;56530;42.640;23.372;2024-01-15T04:19:56;28.17;;;21.63;;
69369;SDS011;56530;42.640;23.372;2024-01-15T04:22:21;33.13;;;22.73;;
69369;SDS011;56530;42.640;23.372;2024-01-15T04:24:47;29.90;;;22.67;;
69369;SDS011;56530;42.640;23.372;2024-01-15T04:27:13;27.67;;;22.80;;
69369;SDS011;56530;42.640;23.372;2024-01-15T04:29:38;31.27;;;24.20;;
69369;SDS011;56530;42.640;23.372;2024-01-15T04:32:04;27.63;;;22.80;;
69369;SDS011;56530;42.640;23.372;2024-01-15T04:34:30;29.30;;;23.98;;
69369;SDS011;56530;42.640;23.372;2024-01-15T04:36:55;26.20;;;21.57;;
69369;SDS011;56530;42.640;23.372;2024-01-15T04:39:20;24.57;;;17.73;;
69369;SDS011;56530;42.640;23.372;2024-01-15T04:41:47;27.63;;;21.83;;
69369;SDS011;56530;42.640;23.372;2024-01-15T04:44:12;23.73;;;19.07;;
69369;SDS011;56530;42.640;23.372;2024-01-15T04:46:38;22.17;;;17.17;;
69369;SDS011;56530;42.640;23.372;2024-01-15T04:49:03;23.03;;;18.57;;
69369;SDS011;56530;42.640;23.372;2024-01-15T04:51:28;25.53;;;20.80;;
69369;SDS011;56530;42.640;23.372;2024-01-15T04:53:54;23.20;;;18.70;;
69369;SDS011;56530;42.640;23.372;2024-01-15T04:56:19;25.07;;;18.97;;
69369;SDS011;56530;42.640;23.372;2024-01-15T04:58:45;24.70;;;19.50;;
69369;SDS011;56530;42.640;23.372;2024-01-15T05:01:10;23.53;;;18.50;;
69369;SDS011;56530;42.640;23.372;2024-01-15T05:03:36;22.17;;;18.77;;
69369;SDS011;56530;42.640;23.372;2024-01-15T05:06:01;26.67;;;20.13;;
69369;SDS011;56530;42.640;23.372;2024-01-15T05:08:27;26.63;;;19.70;;
69369;SDS011;56530;42.640;23.372;2024-01-15T05:10:53;28.73;;;20.93;;
69369;SDS011;56530;42.640;23.372;2024-01-15T05:13:18;27.23;;;21.07;;
69369;SDS011;56530;42.640;23.372;2024-01-15T05:15:43;26.50;;;21.57;;
69369;SDS011;56530;42.640;23.372;2024-01-15T05:18:09;25.70;;;20.87;;
69369;SDS011;56530;42.640;23.372;2024-01-15T05:20:34;28.80;;;21.83;;
69369;SDS011;56530;42.640;23.372;2024-01-15T05:22:59;24.83;;;20.40;;
69369;SDS011;56530;42.640;23.372;2024-01-15T05:25:25;28.53;;;20.77;;
69369;SDS011;56530;42.640;23.372;2024-01-15T05:27:51;25.23;;;20.40;;
69369;SDS011;56530;42.640;23.372;2024-01-15T05:30:16;23.00;;;19.73;;
69369;SDS011;56530;42.640;23.372;2024-01-15T05:32:44;28.20;;;22.13;;
69369;SDS011;56530;42.640;23.372;2024-01-15T05:35:09;24.90;;;20.80;;
69369;SDS011;56530;42.640;23.372;2024-01-15T05:37:35;27.23;;;20.57;;
69369;SDS011;56530;42.640;23.372;2024-01-15T05:40:01;28.60;;;20.87;;
69369;SDS011;56530;42.640;23.372;2024-01-15T05:42:26;27.23;;;20.77;;
69369;SDS011;56530;42.640;23.372;2024-01-15T05:44:51;26.17;;;19.70;;
69369;SDS011;56530;42.640;23.372;2024-01-15T05:47:17;29.40;;;23.33;;
69369;SDS011;56530;42.640;23.372;2024-01-15T05:49:43;28.07;;;23.13;;
69369;SDS011;56530;42.640;23.372;2024-01-15T05:52:09;31.77;;;24.90;;
69369;SDS011;56530;42.640;23.372;2024-01-15T05:54:34;32.43;;;25.53;;
69369;SDS011;56530;42.640;23.372;2024-01-15T05:56:59;35.10;;;26.17;;
69369;SDS011;56530;42.640;23.372;2024-01-15T05:59:25;32.90;;;25.50;;
69369;SDS011;56530;42.640;23.372;2024-01-15T06:01:50;32.87;;;25.43;;
69369;SDS011;56530;42.640;23.372;2024-01-15T06:04:16;35.00;;;25.87;;
69369;SDS011;56530;42.640;23.372;2024-01-15T06:06:41;31.87;;;26.40;;
69369;SDS011;56530;42.640;23.372;2024-01-15T06:09:06;34.10;;;26.43;;
69369;SDS011;56530;42.640;23.372;2024-01-15T06:11:32;35.77;;;26.70;;
69369;SDS011;56530;42.640;23.372;2024-01-15T06:13:58;34.13;;;27.30;;
69369;SDS011;56530;42.640;23.372;2024-01-15T06:16:25;36.07;;;27.03;;
69369;SDS011;56530;42.640;23.372;2024-01-15T06:18:51;35.23;;;27.50;;
69369;SDS011;56530;42.640;23.372;2024-01-15T06:21:16;38.60;;;28.80;;
69369;SDS011;56530;42.640;23.372;2024-01-15T06:23:41;38.83;;;28.33;;
69369;SDS011;56530;42.640;23.372;2024-01-15T06:26:07;35.20;;;28.33;;
69369;SDS011;56530;42.640;23.372;2024-01-15T06:28:32;41.10;;;28.53;;
69369;SDS011;56530;42.640;23.372;2024-01-15T06:30:58;35.70;;;28.27;;
69369;SDS011;56530;42.640;23.372;2024-01-15T06:33:23;33.40;;;26.53;;
69369;SDS011;56530;42.640;23.372;2024-01-15T06:35:49;37.67;;;27.97;;
69369;SDS011;56530;42.640;23.372;2024-01-15T06:38:15;37.80;;;28.73;;
69369;SDS011;56530;42.640;23.372;2024-01-15T06:40:40;39.20;;;28.53;;
69369;SDS011;56530;42.640;23.372;2024-01-15T06:43:10;34.00;;;26.93;;
69369;SDS011;56530;42.640;23.372;2024-01-15T06:45:36;34.80;;;28.10;;
69369;SDS011;56530;42.640;23.372;2024-01-15T06:48:01;38.07;;;27.20;;
69369;SDS011;56530;42.640;23.372;2024-01-15T06:50:27;37.60;;;27.97;;
69369;SDS011;56530;42.640;23.372;2024-01-15T06:52:52;35.00;;;27.23;;
69369;SDS011;56530;42.640;23.372;2024-01-15T06:55:18;34.33;;;27.27;;
69369;SDS011;56530;42.640;23.372;2024-01-15T06:57:43;34.20;;;26.10;;
69369;SDS011;56530;42.640;23.372;2024-01-15T07:00:08;32.27;;;26.97;;
69369;SDS011;56530;42.640;23.372;2024-01-15T07:02:35;34.93;;;27.03;;
69369;SDS011;56530;42.640;23.372;2024-01-15T07:05:00;43.67;;;28.30;;
69369;SDS011;56530;42.640;23.372;2024-01-15T07:07:26;37.67;;;30.03;;
69369;SDS011;56530;42.640;23.372;2024-01-15T07:09:54;44.70;;;31.53;;
69369;SDS011;56530;42.640;23.372;2024-01-15T07:12:19;43.33;;;32.63;;
69369;SDS011;56530;42.640;23.372;2024-01-15T07:14:44;45.33;;;31.87;;
69369;SDS011;56530;42.640;23.372;2024-01-15T07:17:10;39.47;;;32.80;;
69369;SDS011;56530;42.640;23.372;2024-01-15T07:19:35;41.00;;;33.30;;
69369;SDS011;56530;42.640;23.372;2024-01-15T07:22:01;49.30;;;36.43;;
69369;SDS011;56530;42.640;23.372;2024-01-15T07:24:27;47.47;;;35.40;;
69369;SDS011;56530;42.640;23.372;2024-01-15T07:26:52;47.47;;;37.10;;
69369;SDS011;56530;42.640;23.372;2024-01-15T07:29:17;43.27;;;35.17;;
69369;SDS011;56530;42.640;23.372;2024-01-15T07:31:52;43.60;;;34.43;;
69369;SDS011;56530;42.640;23.372;2024-01-15T07:34:18;47.10;;;33.67;;
69369;SDS011;56530;42.640;23.372;2024-01-15T07:36:44;43.60;;;34.37;;
69369;SDS011;56530;42.640;23.372;2024-01-15T07:39:10;43.67;;;34.37;;
69369;SDS011;56530;42.640;23.372;2024-01-15T07:41:36;44.73;;;30.70;;
69369;SDS011;56530;42.640;23.372;2024-01-15T07:44:02;49.13;;;34.63;;
69369;SDS011;56530;42.640;23.372;2024-01-15T07:46:27;39.47;;;31.50;;
69369;SDS011;56530;42.640;23.372;2024-01-15T07:48:53;40.23;;;32.10;;
69369;SDS011;56530;42.640;23.372;2024-01-15T07:51:24;42.30;;;33.13;;
69369;SDS011;56530;42.640;23.372;2024-01-15T07:53:50;39.83;;;30.20;;
69369;SDS011;56530;42.640;23.372;2024-01-15T07:56:18;39.60;;;30.40;;
69369;SDS011;56530;42.640;23.372;2024-01-15T07:58:43;42.50;;;29.50;;
69369;SDS011;56530;42.640;23.372;2024-01-15T08:01:08;34.57;;;25.73;;
69369;SDS011;56530;42.640;23.372;2024-01-15T08:03:34;33.13;;;27.27;;
69369;SDS011;56530;42.640;23.372;2024-01-15T08:05:59;34.63;;;25.27;;
69369;SDS011;56530;42.640;23.372;2024-01-15T08:08:25;29.60;;;21.50;;
69369;SDS011;56530;42.640;23.372;2024-01-15T08:10:53;27.27;;;20.47;;
69369;SDS011;56530;42.640;23.372;2024-01-15T08:13:19;26.50;;;19.07;;
69369;SDS011;56530;42.640;23.372;2024-01-15T08:15:45;23.27;;;18.57;;
69369;SDS011;56530;42.640;23.372;2024-01-15T08:18:10;24.87;;;19.20;;
69369;SDS011;56530;42.640;23.372;2024-01-15T08:20:36;26.40;;;18.97;;
69369;SDS011;56530;42.640;23.372;2024-01-15T08:23:02;29.23;;;20.27;;
69369;SDS011;56530;42.640;23.372;2024-01-15T08:25:28;29.13;;;19.77;;
69369;SDS011;56530;42.640;23.372;2024-01-15T08:27:53;27.07;;;19.90;;
69369;SDS011;56530;42.640;23.372;2024-01-15T08:30:19;26.00;;;18.13;;
69369;SDS011;56530;42.640;23.372;2024-01-15T08:32:45;19.80;;;16.40;;
69369;SDS011;56530;42.640;23.372;2024-01-15T08:35:11;26.27;;;18.70;;
69369;SDS011;56530;42.640;23.372;2024-01-15T08:37:36;21.17;;;15.60;;
69369;SDS011;56530;42.640;23.372;2024-01-15T08:40:03;22.57;;;16.80;;
69369;SDS011;56530;42.640;23.372;2024-01-15T08:42:29;28.07;;;22.40;;
69369;SDS011;56530;42.640;23.372;2024-01-15T08:44:54;29.23;;;23.00;;
69369;SDS011;56530;42.640;23.372;2024-01-15T08:47:20;33.63;;;22.47;;
69369;SDS011;56530;42.640;23.372;2024-01-15T08:49:45;30.17;;;21.70;;
69369;SDS011;56530;42.640;23.372;2024-01-15T08:52:11;31.07;;;22.10;;
69369;SDS011;56530;42.640;23.372;2024-01-15T08:54:36;29.77;;;23.10;;
69369;SDS011;56530;42.640;23.372;2024-01-15T08:57:02;29.47;;;23.43;;
69369;SDS011;56530;42.640;23.372;2024-01-15T08:59:27;25.90;;;21.20;;
69369;SDS011;56530;42.640;23.372;2024-01-15T09:01:53;30.17;;;21.77;;
69369;SDS011;56530;42.640;23.372;2024-01-15T09:04:18;26.47;;;20.80;;
69369;SDS011;56530;42.640;23.372;2024-01-15T09:06:47;25.40;;;20.20;;
69369;SDS011;56530;42.640;23.372;2024-01-15T09:09:13;26.35;;;19.42;;
69369;SDS011;56530;42.640;23.372;2024-01-15T09:11:39;29.63;;;19.17;;
69369;SDS011;56530;42.640;23.372;2024-01-15T09:14:08;24.65;;;18.88;;
69369;SDS011;56530;42.640;23.372;2024-01-15T09:16:34;28.10;;;19.55;;
69369;SDS011;56530;42.640;23.372;2024-01-15T09:19:00;28.15;;;20.23;;
69369;SDS011;56530;42.640;23.372;2024-01-15T09:21:25;27.52;;;20.65;;
69369;SDS011;56530;42.640;23.372;2024-01-15T09:23:51;25.67;;;17.70;;
69369;SDS011;56530;42.640;23.372;2024-01-15T09:26:16;30.13;;;21.73;;
69369;SDS011;56530;42.640;23.372;2024-01-15T09:28:42;31.27;;;21.83;;
69369;SDS011;56530;42.640;23.372;2024-01-15T09:31:08;30.00;;;22.40;;
69369;SDS011;56530;42.640;23.372;2024-01-15T09:33:33;31.53;;;22.23;;
69369;SDS011;56530;42.640;23.372;2024-01-15T09:36:02;40.13;;;26.17;;
69369;SDS011;56530;42.640;23.372;2024-01-15T09:38:31;54.23;;;40.53;;
69369;SDS011;56530;42.640;23.372;2024-01-15T09:40:56;59.53;;;39.23;;
69369;SDS011;56530;42.640;23.372;2024-01-15T09:43:22;44.40;;;32.17;;
69369;SDS011;56530;42.640;23.372;2024-01-15T09:45:47;45.07;;;32.50;;
69369;SDS011;56530;42.640;23.372;2024-01-15T09:48:14;62.20;;;40.10;;
69369;SDS011;56530;42.640;23.372;2024-01-15T09:50:40;53.37;;;38.10;;
69369;SDS011;56530;42.640;23.372;2024-01-15T09:53:05;59.10;;;43.67;;
69369;SDS011;56530;42.640;23.372;2024-01-15T09:55:31;60.70;;;45.13;;
69369;SDS011;56530;42.640;23.372;2024-01-15T09:57:57;55.37;;;45.70;;
69369;SDS011;56530;42.640;23.372;2024-01-15T10:00:25;59.93;;;47.33;;
69369;SDS011;56530;42.640;23.372;2024-01-15T10:02:51;59.63;;;43.53;;
69369;SDS011;56530;42.640;23.372;2024-01-15T10:05:16;53.90;;;43.00;;
69369;SDS011;56530;42.640;23.372;2024-01-15T10:07:42;56.73;;;41.50;;
69369;SDS011;56530;42.640;23.372;2024-01-15T10:10:07;58.27;;;42.03;;
69369;SDS011;56530;42.640;23.372;2024-01-15T10:12:33;57.20;;;39.50;;
69369;SDS011;56530;42.640;23.372;2024-01-15T10:14:59;46.23;;;38.17;;
69369;SDS011;56530;42.640;23.372;2024-01-15T10:17:25;52.93;;;38.93;;
69369;SDS011;56530;42.640;23.372;2024-01-15T10:19:53;48.97;;;35.67;;
69369;SDS011;56530;42.640;23.372;2024-01-15T10:22:18;47.47;;;37.10;;
69369;SDS011;56530;42.640;23.372;2024-01-15T10:24:44;44.30;;;32.43;;
69369;SDS011;56530;42.640;23.372;2024-01-15T10:27:10;36.93;;;29.43;;
69369;SDS011;56530;42.640;23.372;2024-01-15T10:29:36;37.97;;;26.53;;
69369;SDS011;56530;42.640;23.372;2024-01-15T10:32:02;31.13;;;26.20;;
69369;SDS011;56530;42.640;23.372;2024-01-15T10:34:29;27.13;;;20.97;;
69369;SDS011;56530;42.640;23.372;2024-01-15T10:36:55;26.80;;;19.50;;
69369;SDS011;56530;42.640;23.372;2024-01-15T10:39:22;25.97;;;20.93;;
69369;SDS011;56530;42.640;23.372;2024-01-15T10:41:48;26.13;;;21.23;;
69369;SDS011;56530;42.640;23.372;2024-01-15T10:44:14;32.57;;;23.07;;
69369;SDS011;56530;42.640;23.372;2024-01-15T10:46:40;28.67;;;22.93;;
69369;SDS011;56530;42.640;23.372;2024-01-15T10:49:05;35.37;;;24.53;;
69369;SDS011;56530;42.640;23.372;2024-01-15T10:51:31;29.70;;;21.83;;
69369;SDS011;56530;42.640;23.372;2024-01-15T10:53:57;43.07;;;25.40;;
69369;SDS011;56530;42.640;23.372;2024-01-15T10:56:25;29.40;;;23.90;;
69369;SDS011;56530;42.640;23.372;2024-01-15T10:58:51;34.30;;;24.17;;
69369;SDS011;56530;42.640;23.372;2024-01-15T11:01:17;33.63;;;24.77;;
69369;SDS011;56530;42.640;23.372;2024-01-15T11:03:42;32.27;;;25.03;;
69369;SDS011;56530;42.640;23.372;2024-01-15T11:06:17;28.67;;;23.70;;
69369;SDS011;56530;42.640;23.372;2024-01-15T11:08:49;30.67;;;24.50;;
69369;SDS011;56530;42.640;23.372;2024-01-15T11:11:17;33.40;;;24.00;;
69369;SDS011;56530;42.640;23.372;2024-01-15T11:13:43;30.30;;;22.57;;
69369;SDS011;56530;42.640;23.372;2024-01-15T11:16:12;32.63;;;24.30;;
69369;SDS011;56530;42.640;23.372;2024-01-15T11:26:44;29.33;;;22.37;;
69369;SDS011;56530;42.640;23.372;2024-01-15T11:29:10;31.27;;;22.90;;
69369;SDS011;56530;42.640;23.372;2024-01-15T11:31:57;29.23;;;21.80;;
69369;SDS011;56530;42.640;23.372;2024-01-15T11:37:18;27.37;;;21.43;;
69369;SDS011;56530;42.640;23.372;2024-01-15T11:39:48;28.87;;;20.57;;
69369;SDS011;56530;42.640;23.372;2024-01-15T11:42:18;27.23;;;21.23;;
69369;SDS011;56530;42.640;23.372;2024-01-15T11:44:45;28.90;;;20.50;;
69369;SDS011;56530;42.640;23.372;2024-01-15T11:47:11;28.53;;;20.47;;
69369;SDS011;56530;42.640;23.372;2024-01-15T11:52:34;27.97;;;22.27;;
69369;SDS011;56530;42.640;23.372;2024-01-15T11:57:52;28.97;;;22.00;;
69369;SDS011;56530;42.640;23.372;2024-01-15T12:00:19;27.13;;;22.43;;
69369;SDS011;56530;42.640;23.372;2024-01-15T12:02:46;34.93;;;24.70;;
69369;SDS011;56530;42.640;23.372;2024-01-15T12:05:12;32.50;;;24.00;;
69369;SDS011;56530;42.640;23.372;2024-01-15T12:07:43;32.83;;;24.77;;
69369;SDS011;56530;42.640;23.372;2024-01-15T12:10:19;29.10;;;23.37;;
69369;SDS011;56530;42.640;23.372;2024-01-15T12:13:05;32.20;;;24.63;;
69369;SDS011;56530;42.640;23.372;2024-01-15T12:15:35;35.10;;;24.40;;
69369;SDS011;56530;42.640;23.372;2024-01-15T12:18:00;32.63;;;23.23;;
69369;SDS011;56530;42.640;23.372;2024-01-15T12:20:30;25.57;;;21.23;;
69369;SDS011;56530;42.640;23.372;2024-01-15T12:22:56;32.87;;;21.90;;
69369;SDS011;56530;42.640;23.372;2024-01-15T12:25:28;36.53;;;21.80;;
69369;SDS011;56530;42.640;23.372;2024-01-15T12:28:03;35.77;;;22.23;;
69369;SDS011;56530;42.640;23.372;2024-01-15T12:30:32;28.47;;;21.63;;
69369;SDS011;56530;42.640;23.372;2024-01-15T12:33:05;33.07;;;23.63;;
69369;SDS011;56530;42.640;23.372;2024-01-15T12:35:33;24.50;;;17.43;;
69369;SDS011;56530;42.640;23.372;2024-01-15T12:38:00;29.70;;;21.47;;
69369;SDS011;56530;42.640;23.372;2024-01-15T12:40:35;31.52;;;24.38;;
69369;SDS011;56530;42.640;23.372;2024-01-15T12:43:11;40.23;;;25.77;;
69369;SDS011;56530;42.640;23.372;2024-01-15T12:45:40;35.10;;;27.17;;
69369;SDS011;56530;42.640;23.372;2024-01-15T12:48:05;34.23;;;24.10;;
69369;SDS011;56530;42.640;23.372;2024-01-15T12:50:31;34.63;;;24.83;;
69369;SDS011;56530;42.640;23.372;2024-01-15T12:52:58;27.63;;;22.73;;
69369;SDS011;56530;42.640;23.372;2024-01-15T12:55:24;34.67;;;22.77;;
69369;SDS011;56530;42.640;23.372;2024-01-15T12:57:50;31.23;;;23.30;;
69369;SDS011;56530;42.640;23.372;2024-01-15T13:00:20;29.77;;;21.30;;
69369;SDS011;56530;42.640;23.372;2024-01-15T13:02:45;31.90;;;23.10;;
69369;SDS011;56530;42.640;23.372;2024-01-15T13:05:11;29.20;;;21.47;;
69369;SDS011;56530;42.640;23.372;2024-01-15T13:07:37;35.10;;;22.93;;
69369;SDS011;56530;42.640;23.372;2024-01-15T13:10:03;39.27;;;24.80;;
69369;SDS011;56530;42.640;23.372;2024-01-15T13:12:28;31.53;;;25.10;;
69369;SDS011;56530;42.640;23.372;2024-01-15T13:14:54;29.80;;;24.20;;
69369;SDS011;56530;42.640;23.372;2024-01-15T13:17:19;34.20;;;24.87;;
69369;SDS011;56530;42.640;23.372;2024-01-15T13:19:46;30.17;;;24.65;;
69369;SDS011;56530;42.640;23.372;2024-01-15T13:22:11;36.33;;;23.63;;
69369;SDS011;56530;42.640;23.372;2024-01-15T13:24:39;36.10;;;25.57;;
69369;SDS011;56530;42.640;23.372;2024-01-15T13:27:04;35.93;;;25.47;;
69369;SDS011;56530;42.640;23.372;2024-01-15T13:29:30;31.93;;;24.40;;
69369;SDS011;56530;42.640;23.372;2024-01-15T13:31:56;35.67;;;23.77;;
69369;SDS011;56530;42.640;23.372;2024-01-15T13:34:22;38.17;;;25.37;;
69369;SDS011;56530;42.640;23.372;2024-01-15T13:36:48;32.90;;;24.80;;
69369;SDS011;56530;42.640;23.372;2024-01-15T13:39:15;29.10;;;23.43;;
69369;SDS011;56530;42.640;23.372;2024-01-15T13:41:44;34.50;;;25.10;;
69369;SDS011;56530;42.640;23.372;2024-01-15T13:44:13;31.10;;;23.73;;
69369;SDS011;56530;42.640;23.372;2024-01-15T13:46:38;37.47;;;24.57;;
69369;SDS011;56530;42.640;23.372;2024-01-15T13:49:03;34.00;;;23.90;;
69369;SDS011;56530;42.640;23.372;2024-01-15T13:51:31;37.40;;;23.33;;
69369;SDS011;56530;42.640;23.372;2024-01-15T13:53:57;36.08;;;24.08;;
69369;SDS011;56530;42.640;23.372;2024-01-15T13:56:22;38.10;;;23.67;;
69369;SDS011;56530;42.640;23.372;2024-01-15T13:58:47;35.13;;;24.27;;
69369;SDS011;56530;42.640;23.372;2024-01-15T14:01:13;39.83;;;24.13;;
69369;SDS011;56530;42.640;23.372;2024-01-15T14:03:38;33.93;;;21.10;;
69369;SDS011;56530;42.640;23.372;2024-01-15T14:06:04;30.97;;;22.73;;
69369;SDS011;56530;42.640;23.372;2024-01-15T14:08:33;32.53;;;22.70;;
69369;SDS011;56530;42.640;23.372;2024-01-15T14:10:59;31.93;;;22.67;;
69369;SDS011;56530;42.640;23.372;2024-01-15T14:13:24;29.88;;;23.73;;
69369;SDS011;56530;42.640;23.372;2024-01-15T14:15:50;33.22;;;23.63;;
69369;SDS011;56530;42.640;23.372;2024-01-15T14:18:18;36.53;;;22.60;;